MET'MAP v2.0
soon released !

Expected late october,
this new version will be
more efficient, smarter,
and hosted on a brand new
server x3 powerfull...
...and still free !


Not compatible ?
Try the mobile version !

LOG IN : | Subscribe | Disclaimer | Who is Orbifly ? |
ICAO code :

TAF - LKMT Ostrava-Mosnov - 07 Jun 2020 06:17 UTC - Data Source NOAA   


- Airport Elevation : 844 ft
- IATA code : OSR
- No reported NOTAMs.


LKMT - Ostrava-Mosnov

Latest METAR recorded : 2015/08/11 08:00 LKMT 110800Z VRB02KT 9000 NSC 27/18 Q1015 NOSIG
TAF TAF LKMT
Valid from the 07 at 00:00 until the 08 at 06:00 UTC


062300Z 0700/0806 02008KT 9999 BKN037
TEMPO 0700/0800 8000 SHRA SCT030TCU BKN035
PROB30
TEMPO 0700/0705 5000 TSRA SCT025CB BKN033
TEMPO 0710/0722 18012KT
PROB40
TEMPO 0710/0800 19022G34KT 4000 TSRA SCT030CB BKN035
TEMPO 0800/0806 4000 RA BKN011

Source NOAA


MET'MAP, your aeronautical weather chart ! - Copyright ORBIFLY December 2007

Programming & Development : Alexandra Zaïnal
Co-Developer : Marc-Olivier Méhu
Technical & hardware support : Manuel Goepfert
Concept & Financing : Baudouin d'Aumeries